01:46
Airports
History
Links
Donate
Help keep this website running!
PayPal
Bitcoin
This page is community maintained. The information is intended for PC simulator navigation or reference.
Always use approved charts for navigation.
EDXN
Nordholz-Spieka
Nordholz-Spieka (EDXN)
Nordholz, Niedersachsen, Germany (27637)
(C)
Lat/Lng:53° 46' 2.74" N / 8° 38' 40.07" E
53.767429 / 8.644465
Elevation:72'ft / 22mMSL
ID / ICAO:EDXN
Runways:1
Longest:08-26
Grass 869m / 2,851ft
Controlled:Yes
Nearby Weather01:20 GMT 2017-11-23
Nearby weather at ETMN, Nordholz located 0.6 nautical miles from EDXN
Altimeter: 29.47
Visibility: 6.2 statute miles
Wind: 14 knots (from 190°)
Temp: 10°c / 50°f
Humidity: 61.7%

METAR: ETMN 230120Z 19014KT 9999 10/03 Q0998 BLU+

(Powered by phpweather)
Airport Radio Frequencies
Tower: 121.02
Nearby VORs <50NM
Nearby NDBs
Runway 08 / 26
Dimensions:869 x 29.9m 2851' x 98'ft
Surface:Grass
Runway 08 [A]Runway 26 [B]
Heading:078°TH 258°TH
Lat:
Lng:
53° 45' 59.9"N
8° 38' 16.58"E
53° 46' 5.58"N
8° 39' 3.57"E
User Notes and Comments
53° 46' 2.74" N / 8° 38' 40.07" E
Distance To
Airport ID:
Nearby Airports
(C) Nordholz 0.6 NM
ETMN ( WX ) E 88°
(C) Kuehrstedt-Bederkesa 15.0 NM
EDXZ SSE 156°
(C) BREMERHAVEN 18.2 NM
EDWB S 188°
(C) Sankt Michaelisdonn 25.0 NM
EDXM NE 54°
(C) Heide Buesum 28.6 NM
EDXB NNE 21°
(C) Wangerooge 29.5 NM
EDWG W 272°
(C) WILHELMSHAVEN MARIENSIEL 30.3 NM
EDWI SW 233°
VFR Chart
Flight Planning at SkyVector.com